Time;durP1;ratioP1;P1;durP2;ratioP2;P2;SDS_P1;SDS_P2;PMS_P1;PMS_P2;Temp;Humidity;BMP_temperature;BMP_pressure;BME280_temperature;BME280_humidity;BME280_pressure;Samples;Min_cycle;Max_cycle;Signal;HPM_P1;HPM_P2
2023/09/27 00:01:16;;;;;;;13.45;5.13;;;;;;;20.48;100.00;100842.53;5095537;28;20089;-76
2023/09/27 00:03:42;;;;;;;11.13;5.68;;;;;;;20.49;100.00;100816.59;5095433;28;20020;-77
2023/09/27 00:06:08;;;;;;;12.60;5.20;;;;;;;20.66;100.00;100782.03;5095058;28;20458;-77
2023/09/27 00:08:33;;;;;;;10.80;5.32;;;;;;;20.80;100.00;100825.25;5094745;28;20032;-77
2023/09/27 00:10:58;;;;;;;14.35;5.05;;;;;;;20.70;100.00;100799.88;5095356;28;20028;-74
2023/09/27 00:13:24;;;;;;;10.02;5.10;;;;;;;20.55;100.00;100808.50;5095304;28;20028;-78
2023/09/27 00:15:49;;;;;;;11.05;5.75;;;;;;;20.52;100.00;100753.59;5095214;28;20119;-78
2023/09/27 00:18:15;;;;;;;12.95;5.35;;;;;;;20.74;100.00;100798.78;5094929;28;20035;-76
2023/09/27 00:20:40;;;;;;;12.90;5.32;;;;;;;20.74;100.00;100800.53;5094571;28;20118;-77
2023/09/27 00:23:07;;;;;;;16.08;5.15;;;;;;;20.31;100.00;100706.53;5094851;28;20024;-76
2023/09/27 00:25:33;;;;;;;12.25;5.10;;;;;;;20.57;100.00;100747.25;5094198;28;20020;-76
2023/09/27 00:27:59;;;;;;;14.27;5.03;;;;;;;20.43;100.00;100754.94;5094988;28;20032;-78
2023/09/27 00:30:24;;;;;;;14.00;4.65;;;;;;;20.16;100.00;100761.59;5094283;28;20073;-78
2023/09/27 00:32:49;;;;;;;16.92;5.30;;;;;;;20.67;100.00;100819.91;5073103;28;20044;-77
2023/09/27 00:35:24;;;;;;;13.18;4.82;;;;;;;20.57;100.00;100822.19;5084979;28;20043;-77
2023/09/27 00:37:51;;;;;;;18.40;5.32;;;;;;;20.57;100.00;100840.28;5094254;28;20071;-77
2023/09/27 00:40:18;;;;;;;14.27;4.95;;;;;;;20.62;100.00;100838.25;5094179;28;20028;-75
2023/09/27 00:42:44;;;;;;;11.88;4.85;;;;;;;20.64;100.00;100833.84;5085502;28;20076;-76
2023/09/27 00:45:10;;;;;;;10.63;5.20;;;;;;;20.08;100.00;100781.00;5115171;28;20107;-76
2023/09/27 00:47:37;;;;;;;10.27;4.70;;;;;;;20.37;100.00;100806.94;5115360;28;20070;-76
2023/09/27 00:50:03;;;;;;;16.02;5.03;;;;;;;20.38;100.00;100767.25;5120985;28;20102;-74
2023/09/27 00:52:28;;;;;;;14.45;4.72;;;;;;;20.54;100.00;100824.91;5115462;28;20051;-78
2023/09/27 00:54:54;;;;;;;11.32;4.78;;;;;;;20.36;100.00;100774.25;5095877;28;20049;-77
2023/09/27 00:57:20;;;;;;;10.45;4.90;;;;;;;19.98;100.00;100760.03;5114602;28;20031;-76
2023/09/27 00:59:46;;;;;;;13.48;5.30;;;;;;;20.52;100.00;100808.66;5114266;28;20038;-76
2023/09/27 01:02:12;;;;;;;14.18;5.57;;;;;;;20.53;100.00;100815.50;5114393;28;20035;-76
2023/09/27 01:04:39;;;;;;;9.57;5.15;;;;;;;19.93;100.00;100774.91;5114221;28;20035;-77
2023/09/27 01:07:06;;;;;;;13.63;5.35;;;;;;;19.70;100.00;100772.72;5114698;28;20513;-76
2023/09/27 01:09:32;;;;;;;13.18;4.95;;;;;;;20.23;100.00;100824.09;5119466;28;20516;-77
2023/09/27 01:11:58;;;;;;;11.52;5.15;;;;;;;20.01;100.00;100808.91;5115746;28;20032;-77
2023/09/27 01:14:23;;;;;;;14.75;5.43;;;;;;;19.93;100.00;100754.25;5114088;28;20135;-76
2023/09/27 01:16:48;;;;;;;12.40;5.50;;;;;;;19.65;100.00;100749.72;5113907;28;20027;-75
2023/09/27 01:19:14;;;;;;;10.23;4.93;;;;;;;20.23;100.00;100827.53;5113737;28;20031;-74
2023/09/27 01:21:39;;;;;;;10.68;5.43;;;;;;;19.83;100.00;100772.00;5113204;28;20059;-76
2023/09/27 01:24:06;;;;;;;13.07;5.35;;;;;;;20.01;100.00;100824.38;5113163;28;20076;-74
2023/09/27 01:26:34;;;;;;;11.65;5.70;;;;;;;20.11;100.00;100822.97;5096045;28;20085;-76
2023/09/27 01:28:59;;;;;;;14.15;4.80;;;;;;;20.23;100.00;100824.94;5113989;28;20034;-78
2023/09/27 01:31:25;;;;;;;13.00;5.10;;;;;;;19.68;100.00;100765.06;5095315;28;20023;-75
2023/09/27 01:33:50;;;;;;;18.65;5.53;;;;;;;19.79;100.00;100810.94;5113540;28;20418;-75
2023/09/27 01:36:15;;;;;;;13.68;5.07;;;;;;;19.46;100.00;100743.03;5113247;28;20110;-77
2023/09/27 01:38:41;;;;;;;18.92;5.03;;;;;;;19.64;100.00;100757.56;5113219;28;20554;-78
2023/09/27 01:41:06;;;;;;;11.77;4.85;;;;;;;20.16;100.00;100851.16;5112681;28;20028;-76
2023/09/27 01:43:32;;;;;;;14.50;5.00;;;;;;;20.30;100.00;100864.19;5113715;28;20590;-78
2023/09/27 01:45:58;;;;;;;12.85;5.10;;;;;;;19.87;100.00;100801.03;5113271;28;20031;-77
2023/09/27 01:48:23;;;;;;;9.70;4.95;;;;;;;19.78;100.00;100811.88;5113419;28;20497;-76
2023/09/27 01:50:49;;;;;;;16.65;5.38;;;;;;;20.30;100.00;100877.13;5113354;28;20023;-76
2023/09/27 01:53:15;;;;;;;9.48;4.90;;;;;;;19.97;100.00;100828.03;5113035;28;20106;-77
2023/09/27 01:55:40;;;;;;;16.80;5.05;;;;;;;19.79;100.00;100782.53;5113278;28;20030;-77
2023/09/27 01:58:06;;;;;;;13.57;5.25;;;;;;;20.29;100.00;100880.59;5112841;28;20112;-77
2023/09/27 02:00:31;;;;;;;10.60;4.70;;;;;;;20.06;100.00;100822.41;5112937;28;20028;-77
2023/09/27 02:02:58;;;;;;;13.68;5.18;;;;;;;20.38;100.00;100880.94;5113496;28;20046;-77
2023/09/27 02:05:25;;;;;;;14.38;5.03;;;;;;;20.26;100.00;100881.63;5113180;28;20027;-78
2023/09/27 02:07:51;;;;;;;12.63;4.90;;;;;;;19.93;100.00;100836.06;5113497;28;20019;-78
2023/09/27 02:10:17;;;;;;;13.48;5.55;;;;;;;20.37;100.00;100889.63;5113612;28;20463;-78
2023/09/27 02:12:43;;;;;;;10.30;4.88;;;;;;;20.36;100.00;100885.34;5113270;28;20091;-78
2023/09/27 02:15:10;;;;;;;10.40;5.05;;;;;;;20.15;100.00;100864.97;5113287;28;20036;-75
2023/09/27 02:17:39;;;;;;;20.02;5.35;;;;;;;19.99;100.00;100857.19;5113509;28;20485;-78
2023/09/27 02:20:11;;;;;;;12.48;5.57;;;;;;;20.05;100.00;100869.78;5113559;28;20076;-78
2023/09/27 02:22:37;;;;;;;;;;;;;;;20.18;100.00;100899.22;5095800;28;20040;-76
2023/09/27 02:25:05;;;;;;;11.40;5.15;;;;;;;20.36;100.00;100902.63;5113401;28;19912;-78
2023/09/27 02:27:31;;;;;;;18.20;5.70;;;;;;;20.02;100.00;100906.09;5113483;28;20089;-77
2023/09/27 02:29:56;;;;;;;16.75;5.68;;;;;;;20.07;100.00;100905.84;5113098;28;20133;-77
2023/09/27 02:32:22;;;;;;;13.52;5.05;;;;;;;20.37;100.00;100917.19;5110210;28;20024;-77
2023/09/27 02:34:47;;;;;;;14.82;5.25;;;;;;;20.35;100.00;100930.19;5109017;28;20474;-74
2023/09/27 02:37:15;;;;;;;17.63;5.68;;;;;;;19.93;100.00;100873.00;5073960;28;20036;-76
2023/09/27 02:39:42;;;;;;;14.88;5.88;;;;;;;19.57;100.00;100846.53;5072465;28;20115;-76
2023/09/27 02:42:07;;;;;;;16.80;5.53;;;;;;;19.53;100.00;100834.69;5054390;28;20130;-77
2023/09/27 02:44:32;;;;;;;14.00;5.20;;;;;;;20.08;100.00;100930.78;5072043;28;20506;-76
2023/09/27 02:46:58;;;;;;;16.77;5.65;;;;;;;19.76;100.00;100889.38;5072540;28;20119;-76
2023/09/27 02:49:24;;;;;;;13.25;5.28;;;;;;;20.03;100.00;100951.66;5072370;28;20142;-74
2023/09/27 02:51:52;;;;;;;12.25;5.30;;;;;;;20.31;100.00;100957.09;5072320;28;20033;-78
2023/09/27 02:54:18;;;;;;;15.10;5.57;;;;;;;20.17;100.00;100946.63;5072618;28;20025;-79
2023/09/27 02:56:44;;;;;;;13.50;5.72;;;;;;;20.16;100.00;100947.56;5071853;28;20035;-77
2023/09/27 02:59:11;;;;;;;12.52;5.43;;;;;;;20.07;100.00;100952.31;5072130;28;20024;-75
2023/09/27 03:01:40;;;;;;;15.75;5.57;;;;;;;20.25;100.00;100959.16;5072020;28;20032;-77
2023/09/27 03:04:06;;;;;;;12.07;5.32;;;;;;;20.17;100.00;100949.19;5071379;28;20115;-77
2023/09/27 03:06:33;;;;;;;13.15;5.30;;;;;;;20.28;100.00;100957.25;5071313;28;20032;-77
2023/09/27 03:08:58;;;;;;;15.52;5.70;;;;;;;20.13;100.00;100927.03;5072003;28;20029;-75
2023/09/27 03:11:24;;;;;;;12.55;5.55;;;;;;;19.86;100.00;100887.16;5071478;28;20029;-75
2023/09/27 03:13:49;;;;;;;13.50;5.30;;;;;;;20.01;100.00;100878.59;5072620;28;20017;-72
2023/09/27 03:16:15;;;;;;;15.40;5.45;;;;;;;19.89;100.00;100892.16;5073051;28;20121;-74
2023/09/27 03:18:40;;;;;;;12.65;5.55;;;;;;;20.22;100.00;100949.84;5071076;28;20066;-77
2023/09/27 03:21:05;;;;;;;11.73;5.80;;;;;;;20.38;100.00;100942.13;5071262;28;20032;-76
2023/09/27 03:23:31;;;;;;;13.80;5.35;;;;;;;20.48;100.00;100957.03;5071899;28;20082;-78
2023/09/27 03:25:56;;;;;;;17.00;5.50;;;;;;;19.92;100.00;100897.16;5071559;28;20024;-76
2023/09/27 03:28:23;;;;;;;15.77;5.22;;;;;;;20.35;100.00;100937.94;5071550;28;20025;-76
2023/09/27 03:30:48;;;;;;;14.07;5.20;;;;;;;19.64;100.00;100858.19;5083112;28;20020;-75
2023/09/27 03:33:14;;;;;;;14.65;5.80;;;;;;;20.33;100.00;100951.84;5110936;28;20105;-74
2023/09/27 03:35:41;;;;;;;16.27;5.40;;;;;;;20.36;100.00;100962.03;5112237;28;20034;-75
2023/09/27 03:38:06;;;;;;;13.57;5.20;;;;;;;19.97;100.00;100908.06;5111953;28;20545;-77
2023/09/27 03:40:32;;;;;;;13.52;5.32;;;;;;;19.96;100.00;100914.16;5109774;28;20024;-76
2023/09/27 03:42:57;;;;;;;14.65;5.40;;;;;;;20.28;100.00;100957.25;5091641;28;20021;-77
2023/09/27 03:45:23;;;;;;;13.07;5.38;;;;;;;20.32;100.00;100976.84;5094487;28;20035;-76
2023/09/27 03:47:48;;;;;;;15.73;6.05;;;;;;;19.95;100.00;100909.91;5094928;28;20035;-79
2023/09/27 03:50:14;;;;;;;19.48;5.65;;;;;;;19.99;100.00;100908.84;5095474;28;20031;-76
2023/09/27 03:52:40;;;;;;;15.05;5.25;;;;;;;20.29;100.00;100978.75;5095232;28;20024;-76
2023/09/27 03:55:11;;;;;;;17.65;5.72;;;;;;;19.68;100.00;100888.94;5094400;28;20063;-76
2023/09/27 03:57:37;;;;;;;14.25;5.75;;;;;;;20.27;100.00;100980.59;5094146;28;20093;-76
2023/09/27 04:00:13;;;;;;;13.68;5.32;;;;;;;20.03;100.00;100937.91;5095078;28;20116;-76
2023/09/27 04:02:39;;;;;;;11.43;5.28;;;;;;;20.02;100.00;100934.50;5076494;28;20505;-76
2023/09/27 04:05:05;;;;;;;12.18;5.55;;;;;;;20.28;100.00;100975.34;5076199;28;20115;-76
2023/09/27 04:07:30;;;;;;;11.40;5.60;;;;;;;19.98;100.00;100942.50;5094443;28;20119;-76
2023/09/27 04:09:56;;;;;;;16.70;5.50;;;;;;;20.25;100.00;100974.66;5094871;28;20119;-75
2023/09/27 04:12:21;;;;;;;12.00;5.85;;;;;;;20.24;100.00;100984.19;5094188;28;20031;-74
2023/09/27 04:14:47;;;;;;;11.40;5.28;;;;;;;20.03;100.00;100940.50;5115103;28;20490;-76
2023/09/27 04:17:13;;;;;;;13.65;5.22;;;;;;;20.12;100.00;100935.72;5114502;28;20399;-76
2023/09/27 04:19:38;;;;;;;13.55;5.72;;;;;;;19.91;100.00;100939.38;5114666;28;20036;-76
2023/09/27 04:22:03;;;;;;;11.68;5.38;;;;;;;20.28;100.00;100977.91;5114479;28;20114;-76
2023/09/27 04:24:29;;;;;;;15.98;5.53;;;;;;;20.51;100.00;100992.22;5096013;28;20115;-74
2023/09/27 04:26:54;;;;;;;13.98;5.35;;;;;;;20.00;100.00;100936.34;5113588;28;20026;-74
2023/09/27 04:29:20;;;;;;;13.45;5.53;;;;;;;20.13;100.00;100936.53;5113537;28;20039;-74
2023/09/27 04:31:46;;;;;;;15.35;5.53;;;;;;;20.47;100.00;101001.06;5099541;28;20085;-73
2023/09/27 04:34:11;;;;;;;13.48;5.20;;;;;;;20.43;100.00;100953.88;5092668;28;20047;-76
2023/09/27 04:36:37;;;;;;;11.52;5.57;;;;;;;20.32;100.00;100947.63;5093840;28;20434;-71
2023/09/27 04:39:05;;;;;;;14.25;5.47;;;;;;;20.76;100.00;100994.38;5092729;28;20036;-71
2023/09/27 04:41:31;;;;;;;15.63;5.13;;;;;;;20.61;100.00;100988.25;5074584;28;20534;-72
2023/09/27 04:43:57;;;;;;;14.80;5.40;;;;;;;20.70;100.00;100983.41;5092845;28;20072;-75
2023/09/27 04:46:22;;;;;;;16.27;5.30;;;;;;;20.77;100.00;100985.66;5093041;28;20482;-75
2023/09/27 04:48:48;;;;;;;12.73;5.07;;;;;;;20.99;100.00;100979.28;5092563;28;20036;-75
2023/09/27 04:51:14;;;;;;;18.45;5.38;;;;;;;20.70;100.00;100928.28;5092315;28;20028;-73
2023/09/27 04:53:39;;;;;;;11.45;4.90;;;;;;;20.82;100.00;100973.34;5091150;28;20115;-74
2023/09/27 04:56:06;;;;;;;12.77;5.30;;;;;;;20.91;100.00;100980.59;5092031;28;20074;-75
2023/09/27 04:58:32;;;;;;;15.38;6.22;;;;;;;20.81;100.00;100976.84;5092385;28;20030;-73
2023/09/27 05:00:57;;;;;;;12.48;5.30;;;;;;;20.80;100.00;100975.19;5092042;28;20024;-73
2023/09/27 05:03:23;;;;;;;16.10;5.30;;;;;;;21.05;100.00;100966.03;5092377;28;20028;-76
2023/09/27 05:05:48;;;;;;;15.73;5.50;;;;;;;21.01;100.00;100963.66;5092522;28;20103;-75
2023/09/27 05:08:13;;;;;;;14.20;5.88;;;;;;;20.62;100.00;100889.94;5092571;28;20024;-74
2023/09/27 05:10:39;;;;;;;15.32;5.47;;;;;;;21.05;100.00;100909.13;5092303;28;20020;-75
2023/09/27 05:13:04;;;;;;;15.30;5.70;;;;;;;21.28;100.00;100910.41;5092410;28;20031;-76
2023/09/27 05:15:32;;;;;;;16.17;5.22;;;;;;;21.58;100.00;100904.31;5092392;28;20141;-75
2023/09/27 05:17:57;;;;;;;11.90;4.80;;;;;;;21.39;100.00;100900.28;5092757;28;20024;-76
2023/09/27 05:20:24;;;;;;;10.73;4.88;;;;;;;21.72;100.00;100900.91;5075824;28;20474;-75
2023/09/27 05:22:49;;;;;;;17.70;5.38;;;;;;;21.59;100.00;100931.00;5092781;28;20027;-75
2023/09/27 05:25:15;;;;;;;11.70;5.63;;;;;;;21.93;100.00;100891.03;5091877;28;20032;-73
2023/09/27 05:27:40;;;;;;;18.08;5.05;;;;;;;21.84;100.00;100899.38;5092069;28;20100;-75
2023/09/27 05:30:11;;;;;;;13.07;5.28;;;;;;;21.99;100.00;100935.53;5091957;28;20035;-75
2023/09/27 05:32:36;;;;;;;11.33;5.40;;;;;;;22.08;100.00;100934.16;5092865;28;20040;-76
2023/09/27 05:35:04;;;;;;;10.55;5.00;;;;;;;21.72;100.00;100843.94;5092686;28;20034;-77
2023/09/27 05:37:30;;;;;;;15.65;5.47;;;;;;;21.81;100.00;100843.41;5074392;28;20028;-76
2023/09/27 05:39:55;;;;;;;11.38;5.18;;;;;;;21.80;100.00;100888.31;5092535;28;20024;-76
2023/09/27 05:42:21;;;;;;;10.55;5.15;;;;;;;22.77;100.00;100929.84;5093000;28;20051;-76
2023/09/27 05:44:46;;;;;;;12.15;4.80;;;;;;;22.20;100.00;100833.22;5092097;28;20036;-77
2023/09/27 05:47:12;;;;;;;11.70;4.75;;;;;;;23.00;100.00;100874.72;5092791;28;20028;-77
2023/09/27 05:49:38;;;;;;;10.27;5.30;;;;;;;23.42;100.00;100927.38;5093169;28;20027;-76
2023/09/27 05:52:04;;;;;;;13.32;5.10;;;;;;;23.08;100.00;100867.28;5092736;28;20486;-76
2023/09/27 05:54:29;;;;;;;11.85;4.60;;;;;;;23.19;100.00;100921.91;5075141;28;20091;-75
2023/09/27 05:56:55;;;;;;;13.85;5.18;;;;;;;23.19;100.00;100929.69;5092784;28;20032;-73
2023/09/27 05:59:24;;;;;;;19.98;5.07;;;;;;;23.42;100.00;100871.09;5092449;28;20024;-76
2023/09/27 06:01:51;;;;;;;12.35;4.75;;;;;;;23.23;100.00;100861.06;5074888;28;20521;-77
2023/09/27 06:04:17;;;;;;;13.80;5.18;;;;;;;23.52;100.00;100890.34;5093148;28;20092;-78
2023/09/27 06:06:42;;;;;;;15.60;4.80;;;;;;;23.76;100.00;100906.03;5092338;28;20024;-78
2023/09/27 06:09:09;;;;;;;12.10;5.47;;;;;;;23.53;100.00;100823.66;5092949;28;20423;-78
2023/09/27 06:11:35;;;;;;;10.18;4.90;;;;;;;23.79;100.00;100854.69;5092890;28;20020;-80
2023/09/27 06:14:01;;;;;;;11.85;5.22;;;;;;;23.78;100.00;100829.66;5074526;28;20069;-80
2023/09/27 06:16:27;;;;;;;16.45;5.10;;;;;;;24.12;100.00;100879.31;5092981;28;20031;-79
2023/09/27 06:18:53;;;;;;;13.52;5.20;;;;;;;23.57;100.00;100773.97;5074127;28;20043;-76
2023/09/27 06:21:18;;;;;;;12.80;5.55;;;;;;;23.58;100.00;100868.31;5092459;28;20024;-82
2023/09/27 06:23:44;;;;;;;10.80;5.20;;;;;;;23.17;100.00;100819.16;5093085;28;20031;-82
2023/09/27 06:26:10;;;;;;;17.58;5.32;;;;;;;23.08;100.00;100770.44;5075085;28;20055;-83
2023/09/27 06:28:37;;;;;;;15.23;5.15;;;;;;;23.40;100.00;100866.94;5092648;28;20028;-83
2023/09/27 06:31:06;;;;;;;10.57;5.10;;;;;;;22.90;100.00;100776.84;5074890;28;20078;-83
2023/09/27 06:33:33;;;;;;;13.65;4.90;;;;;;;23.45;100.00;100872.69;5092619;28;20043;-80
2023/09/27 06:35:59;;;;;;;14.20;4.93;;;;;;;23.30;100.00;100830.34;5092464;28;20173;-75
2023/09/27 06:38:25;;;;;;;13.60;5.35;;;;;;;23.59;100.00;100828.44;5092327;28;20031;-80
2023/09/27 06:40:51;;;;;;;12.35;5.43;;;;;;;23.71;100.00;100869.16;5092204;28;20024;-80
2023/09/27 06:43:16;;;;;;;12.73;5.07;;;;;;;23.58;100.00;100892.53;5092562;28;20051;-79
2023/09/27 06:45:42;;;;;;;9.65;5.40;;;;;;;23.76;100.00;100873.09;5092168;28;20028;-77
2023/09/27 06:48:08;;;;;;;19.55;5.25;;;;;;;23.61;100.00;100813.59;5092388;28;20471;-75
2023/09/27 06:50:33;;;;;;;13.10;4.50;;;;;;;23.89;100.00;100847.94;5073934;28;20032;-76
2023/09/27 06:52:59;;;;;;;15.15;5.20;;;;;;;23.91;100.00;100858.22;5092045;28;20024;-77
2023/09/27 06:55:24;;;;;;;13.27;5.10;;;;;;;24.22;100.00;100883.78;5091513;28;20028;-75
2023/09/27 06:57:52;;;;;;;11.75;4.82;;;;;;;24.05;100.00;100882.34;5090930;28;20121;-74
2023/09/27 07:00:18;;;;;;;18.90;4.28;;;;;;;24.24;100.00;100868.06;5091982;28;20120;-77
2023/09/27 07:02:47;;;;;;;7.60;4.15;;;;;;;24.13;100.00;100816.84;5092051;28;20024;-76
2023/09/27 07:05:14;;;;;;;10.30;4.30;;;;;;;24.32;100.00;100858.81;5091932;28;20085;-75
2023/09/27 07:07:40;;;;;;;9.18;4.43;;;;;;;24.66;100.00;100865.84;5092439;28;20038;-76
2023/09/27 07:10:06;;;;;;;14.48;4.78;;;;;;;24.47;100.00;100800.50;5092478;28;20496;-74
2023/09/27 07:12:36;;;;;;;10.10;4.80;;;;;;;24.77;100.00;100833.88;5091490;28;20028;-74
2023/09/27 07:15:12;;;;;;;13.48;4.43;;;;;;;25.27;100.00;100838.78;5073669;28;20032;-77
2023/09/27 07:17:40;;;;;;;9.95;5.03;;;;;;;24.80;100.00;100792.00;5092587;28;20089;-74
2023/09/27 07:20:23;;;;;;;13.43;4.78;;;;;;;25.61;100.00;100801.41;5095433;28;20122;-76
2023/09/27 07:22:50;;;;;;;13.23;4.38;;;;;;;25.78;100.00;100857.47;5077305;28;20486;-77
2023/09/27 07:25:16;;;;;;;15.57;5.20;;;;;;;25.72;100.00;100805.81;5077797;28;20091;-79
2023/09/27 07:27:43;;;;;;;10.68;4.72;;;;;;;26.02;100.00;100867.78;5095656;28;20028;-76
2023/09/27 07:30:12;;;;;;;10.65;4.65;;;;;;;25.42;100.00;100853.28;5096716;28;20028;-76
2023/09/27 07:32:39;;;;;;;11.57;4.30;;;;;;;25.39;100.00;100811.81;5099748;28;20039;-76
2023/09/27 07:35:08;;;;;;;15.55;4.38;;;;;;;26.06;100.00;100863.97;5076733;28;20024;-78
2023/09/27 07:37:35;;;;;;;14.50;4.25;;;;;;;26.28;100.00;100858.78;5075605;28;20040;-78
2023/09/27 07:40:00;;;;;;;17.38;4.05;;;;;;;26.70;100.00;100922.38;5075506;28;20043;-77
2023/09/27 07:42:26;;;;;;;10.10;4.00;;;;;;;25.97;100.00;100820.38;5075463;28;20025;-76
2023/09/27 07:44:51;;;;;;;15.65;4.68;;;;;;;26.05;100.00;100924.91;5075452;28;20032;-79
2023/09/27 07:47:17;;;;;;;18.08;4.15;;;;;;;26.36;100.00;100883.31;5074904;28;20064;-75
2023/09/27 07:49:42;;;;;;;15.35;4.05;;;;;;;26.67;100.00;100879.06;5075086;28;20395;-77
2023/09/27 07:52:07;;;;;;;13.57;4.22;;;;;;;26.12;100.00;100884.38;5074521;28;20028;-77
2023/09/27 07:54:35;;;;;;;11.82;4.10;;;;;;;26.01;100.00;100920.88;5074931;28;20032;-77
2023/09/27 07:57:00;;;;;;;10.88;3.60;;;;;;;25.87;100.00;100975.84;5074974;28;20032;-76
2023/09/27 07:59:25;;;;;;;18.10;4.05;;;;;;;26.01;100.00;100913.06;5074607;28;20033;-76
2023/09/27 08:01:52;;;;;;;11.27;4.13;;;;;;;26.57;100.00;100906.84;5075133;28;20051;-76
2023/09/27 08:04:19;;;;;;;12.00;4.38;;;;;;;26.63;100.00;100930.69;5074437;28;20055;-74
2023/09/27 08:06:46;;;;;;;13.50;4.13;;;;;;;26.73;100.00;100902.09;5074237;28;20041;-76
2023/09/27 08:09:15;;;;;;;15.70;4.25;;;;;;;26.85;100.00;100875.00;5073467;28;20115;-76
2023/09/27 08:11:40;;;;;;;20.02;4.93;;;;;;;27.31;100.00;100925.16;5074814;28;20021;-76
2023/09/27 08:14:08;;;;;;;15.52;4.45;;;;;;;27.23;100.00;100937.16;5073681;28;20032;-76
2023/09/27 08:16:35;;;;;;;12.45;4.55;;;;;;;26.70;100.00;100875.38;5076000;28;20130;-78
2023/09/27 08:19:01;;;;;;;10.80;3.90;;;;;;;27.47;100.00;100934.34;5073925;28;20039;-78
2023/09/27 08:21:26;;;;;;;17.13;4.90;;;;;;;27.58;100.00;100895.91;5074700;28;20419;-76
2023/09/27 08:23:52;;;;;;;15.82;4.30;;;;;;;27.68;100.00;100940.41;5074614;28;20475;-78
2023/09/27 08:26:19;;;;;;;13.95;4.50;;;;;;;27.40;100.00;100864.31;5074513;28;20043;-75
2023/09/27 08:28:44;;;;;;;11.55;3.65;;;;;;;27.67;100.00;100930.91;5073754;28;20067;-76
2023/09/27 08:31:10;;;;;;;14.93;3.60;;;;;;;27.18;100.00;100918.41;5074661;28;20029;-76
2023/09/27 08:33:36;;;;;;;15.40;3.70;;;;;;;27.57;100.00;100930.00;5073783;28;20133;-78
2023/09/27 08:36:02;;;;;;;12.82;3.83;;;;;;;27.15;100.00;100888.19;5072912;28;20068;-76
2023/09/27 08:38:27;;;;;;;13.88;3.75;;;;;;;27.17;100.00;100891.50;5071860;28;20039;-72
2023/09/27 08:40:53;;;;;;;10.85;3.83;;;;;;;27.40;100.00;100941.84;5072808;28;20278;-72
2023/09/27 08:43:20;;;;;;;8.10;3.50;;;;;;;27.22;100.00;100897.16;5055014;28;20120;-74
2023/09/27 08:45:47;;;;;;;15.00;3.80;;;;;;;27.12;100.00;100914.53;5073090;28;20057;-75
2023/09/27 08:48:20;;;;;;;10.43;3.65;;;;;;;27.60;100.00;100955.88;5054873;28;20457;-75
2023/09/27 08:50:48;;;;;;;12.13;3.70;;;;;;;27.64;100.00;100911.06;5072742;28;20025;-75
2023/09/27 08:53:14;;;;;;;12.75;4.03;;;;;;;27.72;100.00;100872.03;5072897;28;20025;-75
2023/09/27 08:55:50;;;;;;;10.57;3.70;;;;;;;28.06;100.00;100899.63;5072675;28;20082;-74
2023/09/27 08:58:16;;;;;;;8.35;3.45;;;;;;;27.88;100.00;100893.31;5069869;28;20024;-75
2023/09/27 09:00:42;;;;;;;11.07;3.50;;;;;;;28.31;100.00;100947.22;5054921;28;20132;-75
2023/09/27 09:03:10;;;;;;;10.15;3.38;;;;;;;27.70;100.00;100894.88;5073706;28;20033;-76
2023/09/27 09:05:36;;;;;;;14.07;3.55;;;;;;;28.51;100.00;100928.81;5073566;28;20032;-76
2023/09/27 09:08:04;;;;;;;14.55;3.38;;;;;;;28.84;100.00;100870.06;5073215;28;20051;-75
2023/09/27 09:10:29;;;;;;;10.00;3.55;;;;;;;29.04;100.00;100911.81;5079211;28;20028;-77
2023/09/27 09:12:55;;;;;;;15.75;3.85;;;;;;;28.32;100.00;100863.34;5087242;28;20032;-75
2023/09/27 09:15:41;;;;;;;12.68;3.70;;;;;;;29.05;100.00;100929.19;5094088;28;20039;-77
2023/09/27 09:18:28;;;;;;;12.25;3.33;;;;;;;28.36;100.00;100938.00;5093534;28;20490;-75
2023/09/27 09:20:57;;;;;;;14.60;3.60;;;;;;;27.43;100.00;100890.16;5092373;28;20032;-75
2023/09/27 09:23:33;;;;;;;8.63;3.65;;;;;;;28.00;100.00;100917.63;5092629;28;20077;-75
2023/09/27 09:25:59;;;;;;;14.60;3.58;;;;;;;28.39;100.00;100940.34;5092467;28;20032;-74
2023/09/27 09:28:25;;;;;;;12.85;3.13;;;;;;;28.15;100.00;100947.69;5092731;28;20024;-75
2023/09/27 09:30:51;;;;;;;8.40;3.40;;;;;;;28.12;100.00;100946.19;5074718;28;20024;-77
2023/09/27 09:33:19;;;;;;;12.18;4.13;;;;;;;28.22;100.00;100933.97;5074572;28;20044;-75
2023/09/27 09:35:45;;;;;;;19.20;3.95;;;;;;;27.93;100.00;100892.94;5092693;28;20115;-74
2023/09/27 09:38:12;;;;;;;11.23;3.30;;;;;;;28.28;100.00;100927.38;5073992;28;20143;-73
2023/09/27 09:41:06;;;;;;;11.43;3.60;;;;;;;28.69;100.00;100936.88;5089729;28;20028;-72
2023/09/27 09:43:37;;;;;;;16.58;3.55;;;;;;;28.64;100.00;100947.78;5082829;28;20036;-73
2023/09/27 09:46:06;;;;;;;8.97;3.50;;;;;;;28.26;100.00;100956.28;5074514;28;20039;-75
2023/09/27 09:48:33;;;;;;;16.48;3.80;;;;;;;27.76;100.00;100894.34;5091492;28;20262;-73
2023/09/27 09:51:06;;;;;;;15.63;3.72;;;;;;;28.44;100.00;100877.97;5091723;28;20032;-74
2023/09/27 09:53:41;;;;;;;13.77;3.63;;;;;;;28.30;100.00;100946.38;5069850;28;20033;-75
2023/09/27 09:56:08;;;;;;;11.45;3.40;;;;;;;28.36;100.00;100943.25;5071126;28;20485;-74
2023/09/27 09:59:00;;;;;;;11.23;3.70;;;;;;;28.53;100.00;100887.63;5071023;28;20033;-76
2023/09/27 10:01:28;;;;;;;11.95;3.80;;;;;;;28.48;100.00;100894.22;5052964;28;20095;-75
2023/09/27 10:03:55;;;;;;;18.77;3.88;;;;;;;27.94;100.00;100827.41;5070844;28;20038;-75
2023/09/27 10:06:21;;;;;;;6.88;3.58;;;;;;;28.84;100.00;100922.44;5070895;28;20115;-73
2023/09/27 10:08:48;;;;;;;7.43;3.50;;;;;;;28.98;100.00;100878.31;5052851;28;20037;-74
2023/09/27 10:11:14;;;;;;;15.02;3.67;;;;;;;28.83;100.00;100898.03;5071153;28;20558;-74
2023/09/27 10:13:41;;;;;;;14.80;3.75;;;;;;;28.55;100.00;100882.28;5070813;28;20447;-75
2023/09/27 10:16:09;;;;;;;11.70;3.30;;;;;;;28.05;100.00;100889.28;5071726;28;20083;-75
2023/09/27 10:18:41;;;;;;;10.40;3.45;;;;;;;28.44;100.00;100896.28;5071851;28;20032;-74
2023/09/27 10:21:12;;;;;;;10.25;3.60;;;;;;;28.54;100.00;100941.66;5071738;28;20469;-74
2023/09/27 10:23:58;;;;;;;8.73;3.72;;;;;;;28.59;100.00;100942.09;5071457;28;20029;-75
2023/09/27 10:26:26;;;;;;;12.30;3.88;;;;;;;29.03;100.00;100931.13;5071775;28;20025;-75
2023/09/27 10:29:00;;;;;;;14.02;3.83;;;;;;;28.67;100.00;100941.41;5054094;28;20042;-76
2023/09/27 10:31:26;;;;;;;11.45;3.63;;;;;;;29.21;100.00;100812.53;5072448;28;20055;-75
2023/09/27 10:33:51;;;;;;;6.47;3.58;;;;;;;29.02;100.00;100844.78;5071478;28;20040;-75
2023/09/27 10:36:20;;;;;;;10.18;4.00;;;;;;;28.47;100.00;100879.47;5070746;28;20033;-73
2023/09/27 10:38:45;;;;;;;9.98;3.67;;;;;;;28.68;100.00;100953.56;5071407;28;20055;-74
2023/09/27 10:41:32;;;;;;;8.02;3.67;;;;;;;28.05;100.00;100975.59;5071388;28;20539;-75
2023/09/27 10:43:59;;;;;;;12.13;3.53;;;;;;;29.06;100.00;100941.31;5071577;28;20483;-75
2023/09/27 10:46:24;;;;;;;7.28;3.47;;;;;;;27.51;100.00;100918.28;5053534;28;20075;-73
2023/09/27 10:48:54;;;;;;;11.05;4.03;;;;;;;27.74;100.00;100956.41;5071586;28;20055;-74
2023/09/27 10:51:21;;;;;;;11.32;3.90;;;;;;;27.36;100.00;100920.38;5053478;28;20060;-74
2023/09/27 10:53:46;;;;;;;12.55;3.97;;;;;;;27.40;100.00;100936.63;5075434;28;20037;-74
2023/09/27 10:56:12;;;;;;;9.60;4.00;;;;;;;28.60;100.00;100933.28;5076186;28;20029;-75
2023/09/27 10:59:04;;;;;;;17.63;4.35;;;;;;;28.96;100.00;100924.78;5075634;28;20032;-75
2023/09/27 11:01:29;;;;;;;9.68;3.65;;;;;;;29.18;100.00;100865.25;5072561;28;20047;-78
2023/09/27 11:04:03;;;;;;;8.43;3.95;;;;;;;29.78;100.00;100889.25;5074670;28;20029;-79
2023/09/27 11:06:31;;;;;;;17.08;4.22;;;;;;;29.14;100.00;100892.69;5076027;28;20053;-76
2023/09/27 11:09:07;;;;;;;8.80;3.95;;;;;;;29.48;100.00;100783.75;5057457;28;20036;-75